Date,TemperatureHighF,TemperatureAvgF,TemperatureLowF,DewpointHighF,DewpointAvgF,DewpointLowF,HumidityHigh,HumidityAvg,HumidityLow,PressureMaxIn,PressureMinIn,WindSpeedMaxMPH,WindSpeedAvgMPH,GustSpeedMaxMPH,PrecipitationSumIn
2014-3-1,36,22,6,20,8,-2,76,56,38,30.21,29.94,5,1,0,0.00
2014-3-2,33,30,24,28,22,12,90,75,58,30.02,29.90,9,3,0,0.02
2014-3-3,26,16,6,11,-1,-8,76,47,27,30.19,29.91,14,4,0,0.00
2014-3-4,32,16,1,8,3,-2,87,59,27,30.33,30.01,8,2,0,0.00
2014-3-5,35,24,14,14,9,6,80,55,30,30.34,29.99,11,3,0,0.00
2014-3-6,32,20,7,11,6,2,82,58,35,30.53,30.17,11,4,0,0.00
2014-3-7,44,30,18,28,19,7,90,65,47,30.20,29.80,7,3,0,0.00
2014-3-8,52,34,21,36,29,19,94,81,54,29.86,29.75,11,3,0,0.00
2014-3-9,41,34,28,32,19,13,93,57,35,30.03,29.75,12,6,0,0.00
2014-3-10,60,43,31,38,30,20,77,60,41,29.74,29.40,11,4,0,0.00
2014-3-11,68,51,38,43,37,33,86,62,30,29.57,29.40,10,3,0,0.00
2014-3-12,44,37,19,42,32,10,98,84,66,29.50,28.92,23,4,0,0.92
2014-3-13,29,20,12,10,2,-4,72,47,25,29.93,29.40,19,9,0,0.00
2014-3-14,57,36,19,29,19,5,71,51,33,29.98,29.56,9,4,0,0.00
2014-3-15,52,44,34,40,30,21,85,60,42,29.97,29.47,26,7,0,0.00
2014-3-16,34,28,24,20,10,3,62,47,33,30.15,29.92,10,5,0,0.00
2014-3-17,37,27,18,10,4,-2,50,37,20,30.01,29.80,10,5,0,0.00
2014-3-18,46,37,30,21,13,8,51,37,24,30.10,29.85,11,4,0,0.00
2014-3-19,41,38,37,37,27,7,94,66,27,30.03,29.64,11,4,0,0.00
2014-3-20,44,40,36,39,31,26,99,72,52,29.85,29.57,19,6,0,0.02
2014-3-21,56,40,31,26,22,15,72,51,21,29.92,29.77,14,4,0,0.00
2014-3-22,58,41,27,37,27,22,84,60,34,29.93,29.60,24,6,0,0.00
2014-3-23,43,33,23,26,15,6,82,51,23,30.06,29.86,16,5,0,0.00
2014-3-24,36,23,13,11,5,3,68,46,27,30.20,29.98,15,4,0,0.00
2014-3-25,40,27,16,24,16,9,92,66,39,30.00,29.69,9,2,0,0.00
2014-3-26,33,26,20,24,8,-1,94,50,23,30.17,29.70,17,7,0,0.00
2014-3-27,46,31,12,21,13,5,84,50,26,30.27,29.89,9,3,0,0.00
2014-3-28,61,46,34,52,39,21,97,76,43,30.01,29.73,11,3,0,0.29
2014-3-29,46,41,31,43,39,31,99,95,81,30.05,29.50,11,4,0,1.00
2014-3-30,41,39,36,40,34,31,99,85,74,29.73,29.49,11,4,0,0.11
2014-3-31,65,48,33,33,30,24,88,55,22,29.98,29.73,12,4,0,0.00